sensor_id;sensor_type;location;lat;lon;timestamp;P1;durP1;ratioP1;P2;durP2;ratioP2
12840;SDS011;6487;48.626;12.486;2022-09-30T00:01:49;5.00;;;4.60;;
12840;SDS011;6487;48.626;12.486;2022-09-30T00:04:19;4.27;;;3.97;;
12840;SDS011;6487;48.626;12.486;2022-09-30T00:06:51;5.03;;;4.60;;
12840;SDS011;6487;48.626;12.486;2022-09-30T00:09:21;5.00;;;4.27;;
12840;SDS011;6487;48.626;12.486;2022-09-30T00:11:49;4.90;;;4.47;;
12840;SDS011;6487;48.626;12.486;2022-09-30T00:14:19;4.50;;;4.07;;
12840;SDS011;6487;48.626;12.486;2022-09-30T00:16:49;5.17;;;4.43;;
12840;SDS011;6487;48.626;12.486;2022-09-30T00:19:18;5.57;;;4.80;;
12840;SDS011;6487;48.626;12.486;2022-09-30T00:21:46;4.97;;;4.50;;
12840;SDS011;6487;48.626;12.486;2022-09-30T00:24:16;5.33;;;4.83;;
12840;SDS011;6487;48.626;12.486;2022-09-30T00:26:44;4.50;;;4.13;;
12840;SDS011;6487;48.626;12.486;2022-09-30T00:29:12;4.40;;;4.00;;
12840;SDS011;6487;48.626;12.486;2022-09-30T00:31:41;5.00;;;4.60;;
12840;SDS011;6487;48.626;12.486;2022-09-30T00:34:09;6.70;;;4.60;;
12840;SDS011;6487;48.626;12.486;2022-09-30T00:36:39;5.10;;;4.70;;
12840;SDS011;6487;48.626;12.486;2022-09-30T00:39:11;5.03;;;4.53;;
12840;SDS011;6487;48.626;12.486;2022-09-30T00:41:43;7.47;;;4.63;;
12840;SDS011;6487;48.626;12.486;2022-09-30T00:50:21;7.87;;;5.17;;
12840;SDS011;6487;48.626;12.486;2022-09-30T00:53:01;6.17;;;5.03;;
12840;SDS011;6487;48.626;12.486;2022-09-30T00:55:39;5.70;;;4.60;;
12840;SDS011;6487;48.626;12.486;2022-09-30T00:58:20;4.70;;;4.30;;
12840;SDS011;6487;48.626;12.486;2022-09-30T01:00:55;5.97;;;3.80;;
12840;SDS011;6487;48.626;12.486;2022-09-30T01:03:27;5.40;;;4.90;;
12840;SDS011;6487;48.626;12.486;2022-09-30T01:05:58;4.77;;;4.20;;
12840;SDS011;6487;48.626;12.486;2022-09-30T01:08:27;5.00;;;4.60;;
12840;SDS011;6487;48.626;12.486;2022-09-30T01:10:57;4.70;;;4.37;;
12840;SDS011;6487;48.626;12.486;2022-09-30T01:13:34;6.13;;;4.20;;
12840;SDS011;6487;48.626;12.486;2022-09-30T01:19:15;6.43;;;4.33;;
12840;SDS011;6487;48.626;12.486;2022-09-30T01:22:05;4.27;;;3.97;;
12840;SDS011;6487;48.626;12.486;2022-09-30T01:28:12;4.53;;;4.00;;
12840;SDS011;6487;48.626;12.486;2022-09-30T01:31:32;4.27;;;3.87;;
12840;SDS011;6487;48.626;12.486;2022-09-30T01:34:16;5.93;;;3.87;;
12840;SDS011;6487;48.626;12.486;2022-09-30T01:36:56;4.57;;;4.17;;
12840;SDS011;6487;48.626;12.486;2022-09-30T01:39:36;6.93;;;4.50;;
12840;SDS011;6487;48.626;12.486;2022-09-30T01:42:17;4.43;;;4.03;;
12840;SDS011;6487;48.626;12.486;2022-09-30T01:44:54;4.43;;;4.03;;
12840;SDS011;6487;48.626;12.486;2022-09-30T01:47:30;4.67;;;4.13;;
12840;SDS011;6487;48.626;12.486;2022-09-30T01:50:04;5.60;;;4.33;;
12840;SDS011;6487;48.626;12.486;2022-09-30T01:52:43;4.80;;;4.30;;
12840;SDS011;6487;48.626;12.486;2022-09-30T01:55:20;5.07;;;4.27;;
12840;SDS011;6487;48.626;12.486;2022-09-30T01:57:55;4.33;;;4.00;;
12840;SDS011;6487;48.626;12.486;2022-09-30T02:00:29;5.87;;;3.53;;
12840;SDS011;6487;48.626;12.486;2022-09-30T02:03:05;4.93;;;3.90;;
12840;SDS011;6487;48.626;12.486;2022-09-30T02:05:39;5.23;;;4.27;;
12840;SDS011;6487;48.626;12.486;2022-09-30T02:08:13;4.70;;;4.30;;
12840;SDS011;6487;48.626;12.486;2022-09-30T02:10:54;4.13;;;3.83;;
12840;SDS011;6487;48.626;12.486;2022-09-30T02:13:27;5.23;;;4.73;;
12840;SDS011;6487;48.626;12.486;2022-09-30T02:16:04;4.73;;;4.27;;
12840;SDS011;6487;48.626;12.486;2022-09-30T02:18:41;4.27;;;3.93;;
12840;SDS011;6487;48.626;12.486;2022-09-30T02:21:13;9.83;;;4.90;;
12840;SDS011;6487;48.626;12.486;2022-09-30T02:23:47;5.37;;;4.80;;
12840;SDS011;6487;48.626;12.486;2022-09-30T02:26:20;5.37;;;4.97;;
12840;SDS011;6487;48.626;12.486;2022-09-30T02:28:55;4.77;;;4.37;;
12840;SDS011;6487;48.626;12.486;2022-09-30T02:31:30;4.90;;;4.47;;
12840;SDS011;6487;48.626;12.486;2022-09-30T02:34:04;5.03;;;4.57;;
12840;SDS011;6487;48.626;12.486;2022-09-30T02:36:37;5.27;;;4.50;;
12840;SDS011;6487;48.626;12.486;2022-09-30T02:39:12;4.77;;;4.37;;
12840;SDS011;6487;48.626;12.486;2022-09-30T02:41:49;5.17;;;4.67;;
12840;SDS011;6487;48.626;12.486;2022-09-30T02:44:23;4.50;;;4.10;;
12840;SDS011;6487;48.626;12.486;2022-09-30T02:46:54;4.73;;;4.27;;
12840;SDS011;6487;48.626;12.486;2022-09-30T02:49:29;5.67;;;4.70;;
12840;SDS011;6487;48.626;12.486;2022-09-30T02:52:06;4.83;;;4.43;;
12840;SDS011;6487;48.626;12.486;2022-09-30T02:54:51;4.60;;;4.20;;
12840;SDS011;6487;48.626;12.486;2022-09-30T02:57:35;6.83;;;4.37;;
12840;SDS011;6487;48.626;12.486;2022-09-30T03:00:16;5.40;;;4.80;;
12840;SDS011;6487;48.626;12.486;2022-09-30T03:02:45;5.73;;;5.13;;
12840;SDS011;6487;48.626;12.486;2022-09-30T03:05:14;5.53;;;5.03;;
12840;SDS011;6487;48.626;12.486;2022-09-30T03:07:43;5.60;;;4.70;;
12840;SDS011;6487;48.626;12.486;2022-09-30T03:10:12;6.73;;;4.70;;
12840;SDS011;6487;48.626;12.486;2022-09-30T03:12:45;5.80;;;5.30;;
12840;SDS011;6487;48.626;12.486;2022-09-30T03:15:33;5.63;;;5.13;;
12840;SDS011;6487;48.626;12.486;2022-09-30T03:18:18;5.80;;;5.30;;
12840;SDS011;6487;48.626;12.486;2022-09-30T03:21:06;5.37;;;4.83;;
12840;SDS011;6487;48.626;12.486;2022-09-30T03:27:19;5.43;;;5.03;;
12840;SDS011;6487;48.626;12.486;2022-09-30T03:30:00;6.43;;;5.53;;
12840;SDS011;6487;48.626;12.486;2022-09-30T03:32:35;7.60;;;5.63;;
12840;SDS011;6487;48.626;12.486;2022-09-30T03:35:26;6.63;;;6.00;;
12840;SDS011;6487;48.626;12.486;2022-09-30T03:38:02;7.33;;;6.10;;
12840;SDS011;6487;48.626;12.486;2022-09-30T03:40:40;7.07;;;6.40;;
12840;SDS011;6487;48.626;12.486;2022-09-30T03:43:28;6.90;;;6.00;;
12840;SDS011;6487;48.626;12.486;2022-09-30T03:46:01;6.90;;;6.30;;
12840;SDS011;6487;48.626;12.486;2022-09-30T03:48:36;6.43;;;5.93;;
12840;SDS011;6487;48.626;12.486;2022-09-30T03:51:06;6.60;;;6.00;;
12840;SDS011;6487;48.626;12.486;2022-09-30T03:53:38;6.80;;;6.17;;
12840;SDS011;6487;48.626;12.486;2022-09-30T03:56:07;7.07;;;6.37;;
12840;SDS011;6487;48.626;12.486;2022-09-30T03:58:35;6.93;;;6.23;;
12840;SDS011;6487;48.626;12.486;2022-09-30T04:01:10;6.37;;;5.77;;
12840;SDS011;6487;48.626;12.486;2022-09-30T04:03:46;6.53;;;5.93;;
12840;SDS011;6487;48.626;12.486;2022-09-30T04:06:17;6.60;;;6.00;;
12840;SDS011;6487;48.626;12.486;2022-09-30T04:08:50;6.63;;;6.03;;
12840;SDS011;6487;48.626;12.486;2022-09-30T04:11:19;6.27;;;5.87;;
12840;SDS011;6487;48.626;12.486;2022-09-30T04:13:47;5.40;;;4.90;;
12840;SDS011;6487;48.626;12.486;2022-09-30T04:16:16;7.60;;;5.77;;
12840;SDS011;6487;48.626;12.486;2022-09-30T04:18:44;5.97;;;5.57;;
12840;SDS011;6487;48.626;12.486;2022-09-30T04:21:13;6.70;;;6.20;;
12840;SDS011;6487;48.626;12.486;2022-09-30T04:23:42;6.40;;;5.80;;
12840;SDS011;6487;48.626;12.486;2022-09-30T04:26:13;6.70;;;6.20;;
12840;SDS011;6487;48.626;12.486;2022-09-30T04:28:45;9.90;;;6.30;;
12840;SDS011;6487;48.626;12.486;2022-09-30T04:31:13;6.67;;;6.13;;
12840;SDS011;6487;48.626;12.486;2022-09-30T04:33:44;6.57;;;5.97;;
12840;SDS011;6487;48.626;12.486;2022-09-30T04:36:13;6.63;;;6.03;;
12840;SDS011;6487;48.626;12.486;2022-09-30T04:38:41;8.73;;;5.97;;
12840;SDS011;6487;48.626;12.486;2022-09-30T04:41:11;8.37;;;6.60;;
12840;SDS011;6487;48.626;12.486;2022-09-30T04:43:43;7.33;;;6.73;;
12840;SDS011;6487;48.626;12.486;2022-09-30T04:46:13;6.93;;;6.33;;
12840;SDS011;6487;48.626;12.486;2022-09-30T04:48:42;6.90;;;6.30;;
12840;SDS011;6487;48.626;12.486;2022-09-30T04:51:11;7.33;;;5.93;;
12840;SDS011;6487;48.626;12.486;2022-09-30T04:53:40;7.37;;;6.00;;
12840;SDS011;6487;48.626;12.486;2022-09-30T04:56:09;6.30;;;5.70;;
12840;SDS011;6487;48.626;12.486;2022-09-30T04:58:39;6.60;;;6.00;;
12840;SDS011;6487;48.626;12.486;2022-09-30T05:01:08;5.70;;;5.20;;
12840;SDS011;6487;48.626;12.486;2022-09-30T05:03:38;6.47;;;5.83;;
12840;SDS011;6487;48.626;12.486;2022-09-30T05:06:07;6.97;;;6.03;;
12840;SDS011;6487;48.626;12.486;2022-09-30T05:08:36;6.37;;;5.73;;
12840;SDS011;6487;48.626;12.486;2022-09-30T05:11:14;6.80;;;6.10;;
12840;SDS011;6487;48.626;12.486;2022-09-30T05:13:45;7.07;;;6.47;;
12840;SDS011;6487;48.626;12.486;2022-09-30T05:16:16;7.63;;;6.27;;
12840;SDS011;6487;48.626;12.486;2022-09-30T05:18:45;6.97;;;6.33;;
12840;SDS011;6487;48.626;12.486;2022-09-30T05:21:14;6.23;;;5.43;;
12840;SDS011;6487;48.626;12.486;2022-09-30T05:23:46;6.17;;;5.67;;
12840;SDS011;6487;48.626;12.486;2022-09-30T05:26:16;6.50;;;5.90;;
12840;SDS011;6487;48.626;12.486;2022-09-30T05:28:44;6.63;;;5.93;;
12840;SDS011;6487;48.626;12.486;2022-09-30T05:31:13;6.33;;;5.77;;
12840;SDS011;6487;48.626;12.486;2022-09-30T05:33:41;5.47;;;5.07;;
12840;SDS011;6487;48.626;12.486;2022-09-30T05:36:11;6.70;;;5.43;;
12840;SDS011;6487;48.626;12.486;2022-09-30T05:38:41;6.67;;;5.63;;
12840;SDS011;6487;48.626;12.486;2022-09-30T05:41:11;6.63;;;5.93;;
12840;SDS011;6487;48.626;12.486;2022-09-30T05:43:42;6.67;;;5.37;;
12840;SDS011;6487;48.626;12.486;2022-09-30T05:46:13;6.80;;;5.60;;
12840;SDS011;6487;48.626;12.486;2022-09-30T05:48:45;7.57;;;6.87;;
12840;SDS011;6487;48.626;12.486;2022-09-30T05:51:13;9.43;;;8.53;;
12840;SDS011;6487;48.626;12.486;2022-09-30T05:53:42;12.43;;;11.23;;
12840;SDS011;6487;48.626;12.486;2022-09-30T05:56:10;8.67;;;7.53;;
12840;SDS011;6487;48.626;12.486;2022-09-30T05:58:39;8.30;;;7.53;;
12840;SDS011;6487;48.626;12.486;2022-09-30T06:01:11;8.00;;;7.23;;
12840;SDS011;6487;48.626;12.486;2022-09-30T06:03:41;9.67;;;6.90;;
12840;SDS011;6487;48.626;12.486;2022-09-30T06:06:10;6.53;;;5.93;;
12840;SDS011;6487;48.626;12.486;2022-09-30T06:08:39;6.60;;;5.90;;
12840;SDS011;6487;48.626;12.486;2022-09-30T06:11:09;7.40;;;6.67;;
12840;SDS011;6487;48.626;12.486;2022-09-30T06:13:40;6.60;;;6.10;;
12840;SDS011;6487;48.626;12.486;2022-09-30T06:16:11;7.90;;;6.63;;
12840;SDS011;6487;48.626;12.486;2022-09-30T06:18:39;11.17;;;7.97;;
12840;SDS011;6487;48.626;12.486;2022-09-30T06:21:09;10.13;;;9.13;;
12840;SDS011;6487;48.626;12.486;2022-09-30T06:23:38;8.17;;;7.33;;
12840;SDS011;6487;48.626;12.486;2022-09-30T06:26:09;8.40;;;7.60;;
12840;SDS011;6487;48.626;12.486;2022-09-30T06:28:38;8.83;;;8.03;;
12840;SDS011;6487;48.626;12.486;2022-09-30T06:31:09;9.50;;;8.53;;
12840;SDS011;6487;48.626;12.486;2022-09-30T06:33:37;9.50;;;8.60;;
12840;SDS011;6487;48.626;12.486;2022-09-30T06:36:07;8.27;;;7.57;;
12840;SDS011;6487;48.626;12.486;2022-09-30T06:38:35;9.80;;;8.90;;
12840;SDS011;6487;48.626;12.486;2022-09-30T06:41:05;8.97;;;8.07;;
12840;SDS011;6487;48.626;12.486;2022-09-30T06:43:35;10.37;;;8.37;;
12840;SDS011;6487;48.626;12.486;2022-09-30T06:46:03;8.53;;;7.73;;
12840;SDS011;6487;48.626;12.486;2022-09-30T06:48:45;8.30;;;7.50;;
12840;SDS011;6487;48.626;12.486;2022-09-30T06:51:13;8.83;;;8.03;;
12840;SDS011;6487;48.626;12.486;2022-09-30T06:53:42;8.87;;;8.07;;
12840;SDS011;6487;48.626;12.486;2022-09-30T06:56:13;10.00;;;8.90;;
12840;SDS011;6487;48.626;12.486;2022-09-30T06:58:43;8.60;;;7.80;;
12840;SDS011;6487;48.626;12.486;2022-09-30T07:01:11;8.93;;;8.13;;
12840;SDS011;6487;48.626;12.486;2022-09-30T07:03:41;9.13;;;8.30;;
12840;SDS011;6487;48.626;12.486;2022-09-30T07:06:13;9.63;;;8.83;;
12840;SDS011;6487;48.626;12.486;2022-09-30T07:08:41;9.73;;;8.93;;
12840;SDS011;6487;48.626;12.486;2022-09-30T07:11:10;9.30;;;8.43;;
12840;SDS011;6487;48.626;12.486;2022-09-30T07:13:41;8.33;;;7.63;;
12840;SDS011;6487;48.626;12.486;2022-09-30T07:16:12;8.30;;;7.60;;
12840;SDS011;6487;48.626;12.486;2022-09-30T07:18:41;8.67;;;7.87;;
12840;SDS011;6487;48.626;12.486;2022-09-30T07:21:11;8.80;;;8.03;;
12840;SDS011;6487;48.626;12.486;2022-09-30T07:23:42;9.67;;;8.70;;
12840;SDS011;6487;48.626;12.486;2022-09-30T07:26:13;7.77;;;7.17;;
12840;SDS011;6487;48.626;12.486;2022-09-30T07:28:44;8.53;;;7.80;;
12840;SDS011;6487;48.626;12.486;2022-09-30T07:31:13;8.53;;;7.83;;
12840;SDS011;6487;48.626;12.486;2022-09-30T07:34:01;9.93;;;9.07;;
12840;SDS011;6487;48.626;12.486;2022-09-30T07:36:34;9.63;;;8.70;;
12840;SDS011;6487;48.626;12.486;2022-09-30T07:39:06;9.17;;;8.40;;
12840;SDS011;6487;48.626;12.486;2022-09-30T07:41:37;9.63;;;8.67;;
12840;SDS011;6487;48.626;12.486;2022-09-30T07:44:07;9.73;;;8.83;;
12840;SDS011;6487;48.626;12.486;2022-09-30T07:46:39;11.10;;;9.30;;
12840;SDS011;6487;48.626;12.486;2022-09-30T07:49:10;9.60;;;8.70;;
12840;SDS011;6487;48.626;12.486;2022-09-30T07:51:52;9.87;;;8.83;;
12840;SDS011;6487;48.626;12.486;2022-09-30T07:54:23;9.90;;;8.90;;
12840;SDS011;6487;48.626;12.486;2022-09-30T07:56:55;9.60;;;8.03;;
12840;SDS011;6487;48.626;12.486;2022-09-30T07:59:40;9.43;;;7.90;;
12840;SDS011;6487;48.626;12.486;2022-09-30T08:02:10;8.53;;;7.83;;
12840;SDS011;6487;48.626;12.486;2022-09-30T08:04:42;8.00;;;7.30;;
12840;SDS011;6487;48.626;12.486;2022-09-30T08:07:13;8.37;;;7.53;;
12840;SDS011;6487;48.626;12.486;2022-09-30T08:09:44;7.90;;;7.27;;
12840;SDS011;6487;48.626;12.486;2022-09-30T08:12:12;7.60;;;7.00;;
12840;SDS011;6487;48.626;12.486;2022-09-30T08:14:40;7.90;;;7.20;;
12840;SDS011;6487;48.626;12.486;2022-09-30T08:17:10;8.40;;;7.70;;
12840;SDS011;6487;48.626;12.486;2022-09-30T08:19:38;6.63;;;6.03;;
12840;SDS011;6487;48.626;12.486;2022-09-30T08:22:09;7.03;;;6.33;;
12840;SDS011;6487;48.626;12.486;2022-09-30T08:24:40;6.30;;;5.73;;
12840;SDS011;6487;48.626;12.486;2022-09-30T08:27:09;6.07;;;5.13;;
12840;SDS011;6487;48.626;12.486;2022-09-30T08:29:37;6.23;;;5.73;;
12840;SDS011;6487;48.626;12.486;2022-09-30T08:32:20;6.20;;;5.70;;
12840;SDS011;6487;48.626;12.486;2022-09-30T08:34:48;4.93;;;4.43;;
12840;SDS011;6487;48.626;12.486;2022-09-30T08:37:17;6.17;;;5.00;;
12840;SDS011;6487;48.626;12.486;2022-09-30T08:39:46;5.27;;;4.70;;
12840;SDS011;6487;48.626;12.486;2022-09-30T08:42:18;4.63;;;4.10;;
12840;SDS011;6487;48.626;12.486;2022-09-30T08:45:11;5.40;;;4.83;;
12840;SDS011;6487;48.626;12.486;2022-09-30T08:47:50;5.63;;;4.80;;
12840;SDS011;6487;48.626;12.486;2022-09-30T08:50:27;6.77;;;4.40;;
12840;SDS011;6487;48.626;12.486;2022-09-30T08:53:02;5.57;;;4.57;;
12840;SDS011;6487;48.626;12.486;2022-09-30T08:55:38;5.50;;;5.00;;
12840;SDS011;6487;48.626;12.486;2022-09-30T08:58:13;4.67;;;4.27;;
12840;SDS011;6487;48.626;12.486;2022-09-30T09:00:49;5.70;;;5.20;;
12840;SDS011;6487;48.626;12.486;2022-09-30T09:03:22;7.67;;;5.13;;
12840;SDS011;6487;48.626;12.486;2022-09-30T09:05:58;5.47;;;4.97;;
12840;SDS011;6487;48.626;12.486;2022-09-30T09:08:52;5.00;;;4.60;;
12840;SDS011;6487;48.626;12.486;2022-09-30T09:11:47;7.23;;;5.20;;
12840;SDS011;6487;48.626;12.486;2022-09-30T09:14:33;6.03;;;5.30;;
12840;SDS011;6487;48.626;12.486;2022-09-30T09:17:23;6.20;;;5.70;;
12840;SDS011;6487;48.626;12.486;2022-09-30T09:20:02;5.13;;;4.70;;
12840;SDS011;6487;48.626;12.486;2022-09-30T09:22:39;7.50;;;4.80;;
12840;SDS011;6487;48.626;12.486;2022-09-30T09:25:10;5.00;;;4.60;;
12840;SDS011;6487;48.626;12.486;2022-09-30T09:27:46;5.97;;;4.77;;
12840;SDS011;6487;48.626;12.486;2022-09-30T09:30:19;5.17;;;4.67;;
12840;SDS011;6487;48.626;12.486;2022-09-30T09:32:51;5.30;;;4.03;;
12840;SDS011;6487;48.626;12.486;2022-09-30T09:35:26;4.97;;;4.30;;
12840;SDS011;6487;48.626;12.486;2022-09-30T09:38:05;6.20;;;4.80;;
12840;SDS011;6487;48.626;12.486;2022-09-30T09:40:55;6.03;;;4.77;;
12840;SDS011;6487;48.626;12.486;2022-09-30T09:43:42;5.40;;;4.23;;
12840;SDS011;6487;48.626;12.486;2022-09-30T09:46:20;4.90;;;4.07;;
12840;SDS011;6487;48.626;12.486;2022-09-30T09:52:04;5.00;;;4.60;;
12840;SDS011;6487;48.626;12.486;2022-09-30T09:55:07;4.97;;;4.33;;
12840;SDS011;6487;48.626;12.486;2022-09-30T09:57:37;4.80;;;4.40;;
12840;SDS011;6487;48.626;12.486;2022-09-30T10:00:08;7.67;;;5.20;;
12840;SDS011;6487;48.626;12.486;2022-09-30T10:02:59;5.77;;;4.70;;
12840;SDS011;6487;48.626;12.486;2022-09-30T10:05:31;5.33;;;4.83;;
12840;SDS011;6487;48.626;12.486;2022-09-30T10:08:09;6.13;;;5.33;;
12840;SDS011;6487;48.626;12.486;2022-09-30T10:10:46;7.10;;;4.77;;
12840;SDS011;6487;48.626;12.486;2022-09-30T10:13:17;5.57;;;4.80;;
12840;SDS011;6487;48.626;12.486;2022-09-30T10:15:50;5.23;;;4.73;;
12840;SDS011;6487;48.626;12.486;2022-09-30T10:18:25;4.80;;;4.40;;
12840;SDS011;6487;48.626;12.486;2022-09-30T10:20:56;5.30;;;4.83;;
12840;SDS011;6487;48.626;12.486;2022-09-30T10:23:28;4.80;;;4.37;;
12840;SDS011;6487;48.626;12.486;2022-09-30T10:26:00;5.57;;;5.00;;
12840;SDS011;6487;48.626;12.486;2022-09-30T10:28:32;5.37;;;4.87;;
12840;SDS011;6487;48.626;12.486;2022-09-30T10:31:13;4.67;;;4.27;;
12840;SDS011;6487;48.626;12.486;2022-09-30T10:33:50;4.63;;;4.20;;
12840;SDS011;6487;48.626;12.486;2022-09-30T10:36:28;6.53;;;4.40;;
12840;SDS011;6487;48.626;12.486;2022-09-30T10:38:59;4.60;;;4.07;;
12840;SDS011;6487;48.626;12.486;2022-09-30T10:41:33;6.20;;;4.93;;
12840;SDS011;6487;48.626;12.486;2022-09-30T10:44:04;4.93;;;4.53;;
12840;SDS011;6487;48.626;12.486;2022-09-30T10:46:40;5.23;;;4.73;;
12840;SDS011;6487;48.626;12.486;2022-09-30T10:49:19;5.00;;;4.53;;
12840;SDS011;6487;48.626;12.486;2022-09-30T10:51:53;5.47;;;4.50;;
12840;SDS011;6487;48.626;12.486;2022-09-30T10:57:18;5.57;;;4.77;;
12840;SDS011;6487;48.626;12.486;2022-09-30T10:59:50;7.37;;;5.63;;
12840;SDS011;6487;48.626;12.486;2022-09-30T11:02:27;5.33;;;4.83;;
12840;SDS011;6487;48.626;12.486;2022-09-30T11:05:04;4.87;;;4.37;;
12840;SDS011;6487;48.626;12.486;2022-09-30T11:07:44;5.00;;;4.40;;
12840;SDS011;6487;48.626;12.486;2022-09-30T11:10:29;4.40;;;4.00;;
12840;SDS011;6487;48.626;12.486;2022-09-30T11:13:03;5.03;;;4.37;;
12840;SDS011;6487;48.626;12.486;2022-09-30T11:15:55;5.63;;;4.47;;
12840;SDS011;6487;48.626;12.486;2022-09-30T11:18:33;4.67;;;4.17;;
12840;SDS011;6487;48.626;12.486;2022-09-30T11:21:09;4.97;;;4.57;;
12840;SDS011;6487;48.626;12.486;2022-09-30T11:23:45;8.00;;;4.77;;
12840;SDS011;6487;48.626;12.486;2022-09-30T11:26:19;5.20;;;4.10;;
12840;SDS011;6487;48.626;12.486;2022-09-30T11:29:06;4.20;;;3.80;;
12840;SDS011;6487;48.626;12.486;2022-09-30T11:32:05;4.67;;;4.23;;
12840;SDS011;6487;48.626;12.486;2022-09-30T11:34:47;4.93;;;4.43;;
12840;SDS011;6487;48.626;12.486;2022-09-30T11:37:28;4.57;;;4.03;;
12840;SDS011;6487;48.626;12.486;2022-09-30T11:40:23;7.13;;;4.10;;
12840;SDS011;6487;48.626;12.486;2022-09-30T11:43:00;4.53;;;4.13;;
12840;SDS011;6487;48.626;12.486;2022-09-30T11:45:44;5.63;;;5.13;;
12840;SDS011;6487;48.626;12.486;2022-09-30T11:48:45;7.00;;;5.00;;
12840;SDS011;6487;48.626;12.486;2022-09-30T11:51:34;6.70;;;5.67;;
12840;SDS011;6487;48.626;12.486;2022-09-30T11:54:15;4.67;;;4.17;;
12840;SDS011;6487;48.626;12.486;2022-09-30T11:57:00;5.47;;;4.17;;
12840;SDS011;6487;48.626;12.486;2022-09-30T11:59:38;5.60;;;4.43;;
12840;SDS011;6487;48.626;12.486;2022-09-30T12:05:01;4.70;;;4.27;;
12840;SDS011;6487;48.626;12.486;2022-09-30T12:07:38;5.07;;;4.40;;
12840;SDS011;6487;48.626;12.486;2022-09-30T12:10:14;4.60;;;4.00;;
12840;SDS011;6487;48.626;12.486;2022-09-30T12:12:48;3.83;;;3.43;;
12840;SDS011;6487;48.626;12.486;2022-09-30T12:15:21;3.67;;;3.37;;
12840;SDS011;6487;48.626;12.486;2022-09-30T12:17:53;5.57;;;3.80;;
12840;SDS011;6487;48.626;12.486;2022-09-30T12:20:26;4.47;;;4.07;;
12840;SDS011;6487;48.626;12.486;2022-09-30T12:23:04;7.63;;;4.57;;
12840;SDS011;6487;48.626;12.486;2022-09-30T12:25:42;4.83;;;4.40;;
12840;SDS011;6487;48.626;12.486;2022-09-30T12:28:18;4.13;;;3.73;;
12840;SDS011;6487;48.626;12.486;2022-09-30T12:31:15;4.90;;;4.50;;
12840;SDS011;6487;48.626;12.486;2022-09-30T12:34:01;3.97;;;3.67;;
12840;SDS011;6487;48.626;12.486;2022-09-30T12:36:48;4.77;;;3.77;;
12840;SDS011;6487;48.626;12.486;2022-09-30T12:39:44;4.60;;;3.60;;
12840;SDS011;6487;48.626;12.486;2022-09-30T12:42:55;4.30;;;3.90;;
12840;SDS011;6487;48.626;12.486;2022-09-30T12:46:08;4.03;;;3.57;;
12840;SDS011;6487;48.626;12.486;2022-09-30T12:48:44;4.40;;;3.67;;
12840;SDS011;6487;48.626;12.486;2022-09-30T12:51:25;3.33;;;3.00;;
12840;SDS011;6487;48.626;12.486;2022-09-30T12:53:59;3.83;;;3.50;;
12840;SDS011;6487;48.626;12.486;2022-09-30T12:56:33;3.63;;;3.33;;
12840;SDS011;6487;48.626;12.486;2022-09-30T12:59:03;3.57;;;3.13;;
12840;SDS011;6487;48.626;12.486;2022-09-30T13:01:34;2.90;;;2.60;;
12840;SDS011;6487;48.626;12.486;2022-09-30T13:04:17;2.87;;;2.63;;
12840;SDS011;6487;48.626;12.486;2022-09-30T13:07:12;3.10;;;2.50;;
12840;SDS011;6487;48.626;12.486;2022-09-30T13:09:56;5.27;;;2.97;;
12840;SDS011;6487;48.626;12.486;2022-09-30T13:12:39;6.70;;;2.67;;
12840;SDS011;6487;48.626;12.486;2022-09-30T13:15:21;3.10;;;2.80;;
12840;SDS011;6487;48.626;12.486;2022-09-30T13:21:25;3.27;;;2.30;;
12840;SDS011;6487;48.626;12.486;2022-09-30T13:23:57;4.40;;;2.47;;
12840;SDS011;6487;48.626;12.486;2022-09-30T13:26:33;2.70;;;2.40;;
12840;SDS011;6487;48.626;12.486;2022-09-30T13:29:31;3.20;;;2.30;;
12840;SDS011;6487;48.626;12.486;2022-09-30T13:32:05;3.90;;;2.33;;
12840;SDS011;6487;48.626;12.486;2022-09-30T13:34:47;2.67;;;2.27;;
12840;SDS011;6487;48.626;12.486;2022-09-30T13:37:33;3.17;;;2.27;;
12840;SDS011;6487;48.626;12.486;2022-09-30T13:40:19;2.87;;;2.00;;
12840;SDS011;6487;48.626;12.486;2022-09-30T13:43:13;2.50;;;2.30;;
12840;SDS011;6487;48.626;12.486;2022-09-30T13:45:50;2.20;;;1.90;;
12840;SDS011;6487;48.626;12.486;2022-09-30T13:48:21;2.77;;;2.20;;
12840;SDS011;6487;48.626;12.486;2022-09-30T13:50:56;3.90;;;3.60;;
12840;SDS011;6487;48.626;12.486;2022-09-30T13:53:27;4.23;;;2.67;;
12840;SDS011;6487;48.626;12.486;2022-09-30T13:56:00;2.07;;;1.97;;
12840;SDS011;6487;48.626;12.486;2022-09-30T13:58:50;2.53;;;2.00;;
12840;SDS011;6487;48.626;12.486;2022-09-30T14:05:32;3.17;;;2.30;;
12840;SDS011;6487;48.626;12.486;2022-09-30T14:08:25;2.57;;;2.10;;
12840;SDS011;6487;48.626;12.486;2022-09-30T14:11:16;3.10;;;2.10;;
12840;SDS011;6487;48.626;12.486;2022-09-30T14:14:12;4.63;;;3.30;;
12840;SDS011;6487;48.626;12.486;2022-09-30T14:17:18;4.87;;;2.97;;
12840;SDS011;6487;48.626;12.486;2022-09-30T14:20:03;2.67;;;2.23;;
12840;SDS011;6487;48.626;12.486;2022-09-30T14:22:53;3.77;;;3.30;;
12840;SDS011;6487;48.626;12.486;2022-09-30T14:25:23;5.03;;;2.70;;
12840;SDS011;6487;48.626;12.486;2022-09-30T14:27:54;2.63;;;2.43;;
12840;SDS011;6487;48.626;12.486;2022-09-30T14:30:31;3.27;;;2.13;;
12840;SDS011;6487;48.626;12.486;2022-09-30T14:33:09;3.50;;;2.50;;
12840;SDS011;6487;48.626;12.486;2022-09-30T14:35:45;3.07;;;2.77;;
12840;SDS011;6487;48.626;12.486;2022-09-30T14:38:16;2.87;;;2.50;;
12840;SDS011;6487;48.626;12.486;2022-09-30T14:40:49;2.63;;;2.40;;
12840;SDS011;6487;48.626;12.486;2022-09-30T14:43:20;2.93;;;2.70;;
12840;SDS011;6487;48.626;12.486;2022-09-30T14:45:54;2.73;;;2.33;;
12840;SDS011;6487;48.626;12.486;2022-09-30T14:48:26;2.20;;;2.00;;
12840;SDS011;6487;48.626;12.486;2022-09-30T14:51:02;1.90;;;1.80;;
12840;SDS011;6487;48.626;12.486;2022-09-30T14:53:34;1.90;;;1.80;;
12840;SDS011;6487;48.626;12.486;2022-09-30T14:56:14;2.83;;;2.10;;
12840;SDS011;6487;48.626;12.486;2022-09-30T14:58:47;3.50;;;2.30;;
12840;SDS011;6487;48.626;12.486;2022-09-30T15:01:18;2.47;;;2.23;;
12840;SDS011;6487;48.626;12.486;2022-09-30T15:03:50;2.30;;;1.90;;
12840;SDS011;6487;48.626;12.486;2022-09-30T15:06:23;2.37;;;2.10;;
12840;SDS011;6487;48.626;12.486;2022-09-30T15:08:59;2.33;;;2.13;;
12840;SDS011;6487;48.626;12.486;2022-09-30T15:11:29;2.60;;;2.33;;
12840;SDS011;6487;48.626;12.486;2022-09-30T15:14:05;2.70;;;2.50;;
12840;SDS011;6487;48.626;12.486;2022-09-30T15:16:43;2.97;;;2.67;;
12840;SDS011;6487;48.626;12.486;2022-09-30T15:19:18;4.60;;;3.10;;
12840;SDS011;6487;48.626;12.486;2022-09-30T15:21:50;3.20;;;2.90;;
12840;SDS011;6487;48.626;12.486;2022-09-30T15:24:21;4.67;;;3.00;;
12840;SDS011;6487;48.626;12.486;2022-09-30T15:26:52;4.37;;;2.63;;
12840;SDS011;6487;48.626;12.486;2022-09-30T15:29:22;4.90;;;2.70;;
12840;SDS011;6487;48.626;12.486;2022-09-30T15:31:59;4.03;;;3.37;;
12840;SDS011;6487;48.626;12.486;2022-09-30T15:34:30;4.13;;;2.93;;
12840;SDS011;6487;48.626;12.486;2022-09-30T15:37:01;3.03;;;2.57;;
12840;SDS011;6487;48.626;12.486;2022-09-30T15:39:33;3.17;;;2.57;;
12840;SDS011;6487;48.626;12.486;2022-09-30T15:42:27;3.37;;;2.90;;
12840;SDS011;6487;48.626;12.486;2022-09-30T15:45:01;2.60;;;2.37;;
12840;SDS011;6487;48.626;12.486;2022-09-30T15:47:31;3.83;;;3.07;;
12840;SDS011;6487;48.626;12.486;2022-09-30T15:49:59;3.87;;;3.00;;
12840;SDS011;6487;48.626;12.486;2022-09-30T15:52:34;4.23;;;2.83;;
12840;SDS011;6487;48.626;12.486;2022-09-30T16:01:08;4.07;;;2.70;;
12840;SDS011;6487;48.626;12.486;2022-09-30T16:03:46;3.90;;;2.30;;
12840;SDS011;6487;48.626;12.486;2022-09-30T16:06:21;3.23;;;2.33;;
12840;SDS011;6487;48.626;12.486;2022-09-30T16:08:58;5.37;;;2.30;;
12840;SDS011;6487;48.626;12.486;2022-09-30T16:11:29;2.73;;;2.20;;
12840;SDS011;6487;48.626;12.486;2022-09-30T16:14:02;2.20;;;2.00;;
12840;SDS011;6487;48.626;12.486;2022-09-30T16:16:35;3.30;;;2.33;;